sensor_id;sensor_type;location;lat;lon;timestamp;pressure;altitude;pressure_sealevel;temperature;humidity
73151;BME280;61354;50.758;6.106;2023-02-26T00:00:05;99253.91;;;-0.94;83.79
73151;BME280;61354;50.758;6.106;2023-02-26T00:02:34;99265.75;;;-0.64;83.57
73151;BME280;61354;50.758;6.106;2023-02-26T00:05:02;99256.31;;;-0.87;84.20
73151;BME280;61354;50.758;6.106;2023-02-26T00:07:28;99258.78;;;-0.86;84.54
73151;BME280;61354;50.758;6.106;2023-02-26T00:09:54;99260.44;;;-0.90;85.05
73151;BME280;61354;50.758;6.106;2023-02-26T00:12:20;99257.41;;;-0.83;85.21
73151;BME280;61354;50.758;6.106;2023-02-26T00:14:46;99257.06;;;-0.71;84.01
73151;BME280;61354;50.758;6.106;2023-02-26T00:20:03;99261.47;;;-0.81;83.50
73151;BME280;61354;50.758;6.106;2023-02-26T00:22:29;99264.69;;;-0.68;84.08
73151;BME280;61354;50.758;6.106;2023-02-26T00:24:55;99269.84;;;-0.62;83.95
73151;BME280;61354;50.758;6.106;2023-02-26T00:27:21;99272.03;;;-0.64;84.07
73151;BME280;61354;50.758;6.106;2023-02-26T00:29:47;99273.75;;;-0.83;84.46
73151;BME280;61354;50.758;6.106;2023-02-26T00:32:12;99265.84;;;-0.74;85.87
73151;BME280;61354;50.758;6.106;2023-02-26T00:34:38;99272.44;;;-0.91;84.83
73151;BME280;61354;50.758;6.106;2023-02-26T00:42:33;99289.31;;;-0.89;85.49
73151;BME280;61354;50.758;6.106;2023-02-26T00:45:00;99294.81;;;-0.94;85.47
73151;BME280;61354;50.758;6.106;2023-02-26T00:50:18;99300.88;;;-1.17;86.24
73151;BME280;61354;50.758;6.106;2023-02-26T00:55:21;99307.38;;;-1.13;86.23
73151;BME280;61354;50.758;6.106;2023-02-26T00:57:47;99312.88;;;-1.29;86.37
73151;BME280;61354;50.758;6.106;2023-02-26T01:00:13;99312.88;;;-1.23;86.17
73151;BME280;61354;50.758;6.106;2023-02-26T01:02:40;99316.13;;;-1.11;86.12
73151;BME280;61354;50.758;6.106;2023-02-26T01:05:06;99317.22;;;-1.17;86.71
73151;BME280;61354;50.758;6.106;2023-02-26T01:08:01;99315.00;;;-1.05;86.09
73151;BME280;61354;50.758;6.106;2023-02-26T01:10:23;99311.69;;;-0.97;86.16
73151;BME280;61354;50.758;6.106;2023-02-26T01:12:49;99311.75;;;-1.17;86.28
73151;BME280;61354;50.758;6.106;2023-02-26T01:15:15;99318.25;;;-0.98;85.73
73151;BME280;61354;50.758;6.106;2023-02-26T01:20:35;99317.72;;;-1.05;85.84
73151;BME280;61354;50.758;6.106;2023-02-26T01:23:06;99309.56;;;-1.10;87.13
73151;BME280;61354;50.758;6.106;2023-02-26T01:25:40;99306.25;;;-0.97;86.42
73151;BME280;61354;50.758;6.106;2023-02-26T01:28:08;99314.66;;;-0.88;85.85
73151;BME280;61354;50.758;6.106;2023-02-26T01:30:34;99308.22;;;-1.18;86.76
73151;BME280;61354;50.758;6.106;2023-02-26T01:38:31;99298.66;;;-1.05;86.90
73151;BME280;61354;50.758;6.106;2023-02-26T01:43:38;99309.53;;;-1.05;87.54
73151;BME280;61354;50.758;6.106;2023-02-26T01:48:50;99316.09;;;-1.06;87.70
73151;BME280;61354;50.758;6.106;2023-02-26T01:51:16;99310.84;;;-0.87;87.92
73151;BME280;61354;50.758;6.106;2023-02-26T01:53:41;99302.38;;;-0.81;87.45
73151;BME280;61354;50.758;6.106;2023-02-26T01:56:18;99310.59;;;-0.86;86.80
73151;BME280;61354;50.758;6.106;2023-02-26T01:58:45;99291.75;;;-0.82;87.09
73151;BME280;61354;50.758;6.106;2023-02-26T02:01:14;99307.19;;;-0.57;86.95
73151;BME280;61354;50.758;6.106;2023-02-26T02:03:40;99303.47;;;-0.82;87.59
73151;BME280;61354;50.758;6.106;2023-02-26T02:06:17;99305.16;;;-0.91;87.57
73151;BME280;61354;50.758;6.106;2023-02-26T02:08:44;99307.31;;;-0.83;87.19
73151;BME280;61354;50.758;6.106;2023-02-26T02:11:10;99304.84;;;-0.84;88.02
73151;BME280;61354;50.758;6.106;2023-02-26T02:18:46;99317.63;;;-0.80;88.13
73151;BME280;61354;50.758;6.106;2023-02-26T02:24:42;99332.09;;;-0.84;88.10
73151;BME280;61354;50.758;6.106;2023-02-26T02:32:50;99330.09;;;-0.63;88.50
73151;BME280;61354;50.758;6.106;2023-02-26T02:35:23;99329.59;;;-0.65;88.32
73151;BME280;61354;50.758;6.106;2023-02-26T02:38:02;99331.25;;;-0.80;88.05
73151;BME280;61354;50.758;6.106;2023-02-26T02:40:32;99338.88;;;-0.71;88.21
73151;BME280;61354;50.758;6.106;2023-02-26T02:45:36;99349.28;;;-0.79;88.67
73151;BME280;61354;50.758;6.106;2023-02-26T02:48:34;99352.81;;;-0.78;88.88
73151;BME280;61354;50.758;6.106;2023-02-26T02:51:13;99344.91;;;-0.85;89.36
73151;BME280;61354;50.758;6.106;2023-02-26T02:53:46;99353.28;;;-0.61;88.51
73151;BME280;61354;50.758;6.106;2023-02-26T02:56:18;99354.59;;;-0.48;88.38
73151;BME280;61354;50.758;6.106;2023-02-26T02:58:50;99349.47;;;-0.60;88.12
73151;BME280;61354;50.758;6.106;2023-02-26T03:01:20;99345.19;;;-0.81;88.85
73151;BME280;61354;50.758;6.106;2023-02-26T03:06:33;99351.44;;;-0.81;89.22
73151;BME280;61354;50.758;6.106;2023-02-26T03:09:00;99361.88;;;-0.98;89.43
73151;BME280;61354;50.758;6.106;2023-02-26T03:11:26;99363.19;;;-0.95;90.29
73151;BME280;61354;50.758;6.106;2023-02-26T03:13:52;99367.59;;;-0.99;90.55
73151;BME280;61354;50.758;6.106;2023-02-26T03:19:00;99360.56;;;-1.16;90.97
73151;BME280;61354;50.758;6.106;2023-02-26T03:21:41;99374.94;;;-1.05;90.67
73151;BME280;61354;50.758;6.106;2023-02-26T03:24:15;99365.16;;;-1.11;90.81
73151;BME280;61354;50.758;6.106;2023-02-26T03:26:47;99370.63;;;-1.21;91.34
73151;BME280;61354;50.758;6.106;2023-02-26T03:30:24;99377.69;;;-1.20;91.27
73151;BME280;61354;50.758;6.106;2023-02-26T03:32:38;99391.34;;;-1.36;92.12
73151;BME280;61354;50.758;6.106;2023-02-26T03:35:13;99385.91;;;-1.36;92.49
73151;BME280;61354;50.758;6.106;2023-02-26T03:37:47;99386.97;;;-1.42;92.69
73151;BME280;61354;50.758;6.106;2023-02-26T03:40:36;99393.50;;;-1.38;92.37
73151;BME280;61354;50.758;6.106;2023-02-26T03:43:13;99384.25;;;-1.47;92.87
73151;BME280;61354;50.758;6.106;2023-02-26T03:45:41;99390.28;;;-1.45;92.65
73151;BME280;61354;50.758;6.106;2023-02-26T03:48:13;99387.81;;;-1.52;93.38
73151;BME280;61354;50.758;6.106;2023-02-26T03:50:44;99389.16;;;-1.75;94.50
73151;BME280;61354;50.758;6.106;2023-02-26T03:53:14;99392.16;;;-1.56;93.58
73151;BME280;61354;50.758;6.106;2023-02-26T03:55:54;99394.59;;;-1.54;93.14
73151;BME280;61354;50.758;6.106;2023-02-26T03:58:21;99401.69;;;-1.63;94.18
73151;BME280;61354;50.758;6.106;2023-02-26T04:00:53;99412.56;;;-1.63;93.87
73151;BME280;61354;50.758;6.106;2023-02-26T04:05:58;99418.03;;;-1.73;94.49
73151;BME280;61354;50.758;6.106;2023-02-26T04:08:24;99422.91;;;-1.76;94.19
73151;BME280;61354;50.758;6.106;2023-02-26T04:10:55;99425.91;;;-1.82;94.69
73151;BME280;61354;50.758;6.106;2023-02-26T04:13:22;99417.47;;;-1.81;94.99
73151;BME280;61354;50.758;6.106;2023-02-26T04:15:48;99434.34;;;-1.63;94.38
73151;BME280;61354;50.758;6.106;2023-02-26T04:18:14;99422.91;;;-1.86;94.97
73151;BME280;61354;50.758;6.106;2023-02-26T04:20:39;99424.53;;;-1.85;95.56
73151;BME280;61354;50.758;6.106;2023-02-26T04:23:05;99429.97;;;-1.80;95.16
73151;BME280;61354;50.758;6.106;2023-02-26T04:25:31;99442.47;;;-1.89;95.18
73151;BME280;61354;50.758;6.106;2023-02-26T04:27:56;99443.81;;;-1.96;95.55
73151;BME280;61354;50.758;6.106;2023-02-26T04:30:22;99444.69;;;-1.86;94.73
73151;BME280;61354;50.758;6.106;2023-02-26T04:32:47;99446.28;;;-1.90;94.44
73151;BME280;61354;50.758;6.106;2023-02-26T04:35:13;99449.53;;;-2.03;95.23
73151;BME280;61354;50.758;6.106;2023-02-26T04:37:38;99443.53;;;-2.05;94.93
73151;BME280;61354;50.758;6.106;2023-02-26T04:40:04;99448.97;;;-2.05;94.10
73151;BME280;61354;50.758;6.106;2023-02-26T04:42:30;99454.41;;;-2.05;94.14
73151;BME280;61354;50.758;6.106;2023-02-26T04:44:56;99453.88;;;-2.02;94.12
73151;BME280;61354;50.758;6.106;2023-02-26T04:47:21;99456.84;;;-2.04;93.70
73151;BME280;61354;50.758;6.106;2023-02-26T04:49:47;99466.13;;;-2.00;93.55
73151;BME280;61354;50.758;6.106;2023-02-26T04:52:12;99462.28;;;-2.09;93.46
73151;BME280;61354;50.758;6.106;2023-02-26T04:54:38;99472.41;;;-1.94;92.61
73151;BME280;61354;50.758;6.106;2023-02-26T04:57:05;99467.47;;;-2.07;92.04
73151;BME280;61354;50.758;6.106;2023-02-26T04:59:31;99476.47;;;-2.02;92.11
73151;BME280;61354;50.758;6.106;2023-02-26T05:01:57;99480.78;;;-2.11;92.36
73151;BME280;61354;50.758;6.106;2023-02-26T05:04:23;99477.25;;;-2.11;92.68
73151;BME280;61354;50.758;6.106;2023-02-26T05:06:49;99483.75;;;-2.17;92.37
73151;BME280;61354;50.758;6.106;2023-02-26T05:09:15;99486.75;;;-2.14;92.04
73151;BME280;61354;50.758;6.106;2023-02-26T05:11:40;99485.13;;;-2.15;92.42
73151;BME280;61354;50.758;6.106;2023-02-26T05:14:06;99488.66;;;-2.19;92.51
73151;BME280;61354;50.758;6.106;2023-02-26T05:16:31;99491.41;;;-2.09;92.08
73151;BME280;61354;50.758;6.106;2023-02-26T05:18:57;99483.22;;;-2.14;92.30
73151;BME280;61354;50.758;6.106;2023-02-26T05:21:23;99489.78;;;-2.10;91.61
73151;BME280;61354;50.758;6.106;2023-02-26T05:23:48;99484.56;;;-2.17;92.43
73151;BME280;61354;50.758;6.106;2023-02-26T05:26:14;99492.19;;;-2.19;92.42
73151;BME280;61354;50.758;6.106;2023-02-26T05:28:39;99497.34;;;-2.22;92.98
73151;BME280;61354;50.758;6.106;2023-02-26T05:31:05;99501.09;;;-2.29;92.72
73151;BME280;61354;50.758;6.106;2023-02-26T05:33:31;99507.09;;;-2.27;93.66
73151;BME280;61354;50.758;6.106;2023-02-26T05:35:57;99499.75;;;-2.26;93.91
73151;BME280;61354;50.758;6.106;2023-02-26T05:38:22;99501.34;;;-2.40;95.17
73151;BME280;61354;50.758;6.106;2023-02-26T05:40:48;99498.84;;;-2.42;95.67
73151;BME280;61354;50.758;6.106;2023-02-26T05:43:14;99512.78;;;-2.33;95.49
73151;BME280;61354;50.758;6.106;2023-02-26T05:45:39;99509.22;;;-2.39;96.55
73151;BME280;61354;50.758;6.106;2023-02-26T05:48:05;99512.47;;;-2.37;96.79
73151;BME280;61354;50.758;6.106;2023-02-26T05:50:31;99516.88;;;-2.31;96.42
73151;BME280;61354;50.758;6.106;2023-02-26T05:52:57;99521.13;;;-2.45;97.15
73151;BME280;61354;50.758;6.106;2023-02-26T05:55:23;99526.31;;;-2.43;97.30
73151;BME280;61354;50.758;6.106;2023-02-26T05:57:48;99528.78;;;-2.42;97.49
73151;BME280;61354;50.758;6.106;2023-02-26T06:00:14;99529.34;;;-2.40;97.36
73151;BME280;61354;50.758;6.106;2023-02-26T06:02:41;99543.75;;;-2.39;97.28
73151;BME280;61354;50.758;6.106;2023-02-26T06:05:10;99547.22;;;-2.49;97.83
73151;BME280;61354;50.758;6.106;2023-02-26T06:07:36;99552.13;;;-2.46;97.63
73151;BME280;61354;50.758;6.106;2023-02-26T06:10:01;99555.41;;;-2.44;97.48
73151;BME280;61354;50.758;6.106;2023-02-26T06:12:27;99559.97;;;-2.55;97.76
73151;BME280;61354;50.758;6.106;2023-02-26T06:14:52;99556.72;;;-2.52;98.38
73151;BME280;61354;50.758;6.106;2023-02-26T06:17:18;99559.16;;;-2.50;97.56
73151;BME280;61354;50.758;6.106;2023-02-26T06:19:44;99569.19;;;-2.56;98.23
73151;BME280;61354;50.758;6.106;2023-02-26T06:22:09;99571.13;;;-2.51;97.88
73151;BME280;61354;50.758;6.106;2023-02-26T06:24:35;99570.06;;;-2.45;97.77
73151;BME280;61354;50.758;6.106;2023-02-26T06:27:01;99573.06;;;-2.46;97.23
73151;BME280;61354;50.758;6.106;2023-02-26T06:29:26;99584.72;;;-2.51;97.57
73151;BME280;61354;50.758;6.106;2023-02-26T06:31:52;99586.88;;;-2.53;98.11
73151;BME280;61354;50.758;6.106;2023-02-26T06:34:17;99593.91;;;-2.57;97.73
73151;BME280;61354;50.758;6.106;2023-02-26T06:36:43;99592.81;;;-2.61;97.75
73151;BME280;61354;50.758;6.106;2023-02-26T06:39:09;99593.91;;;-2.57;97.13
73151;BME280;61354;50.758;6.106;2023-02-26T06:41:36;99597.97;;;-2.65;97.83
73151;BME280;61354;50.758;6.106;2023-02-26T06:44:02;99611.88;;;-2.56;97.56
73151;BME280;61354;50.758;6.106;2023-02-26T06:46:28;99622.00;;;-2.46;97.25
73151;BME280;61354;50.758;6.106;2023-02-26T06:48:53;99626.94;;;-2.43;97.46
73151;BME280;61354;50.758;6.106;2023-02-26T06:51:19;99623.44;;;-2.39;96.77
73151;BME280;61354;50.758;6.106;2023-02-26T06:53:45;99629.38;;;-2.42;97.00
73151;BME280;61354;50.758;6.106;2023-02-26T06:56:11;99633.78;;;-2.36;96.92
73151;BME280;61354;50.758;6.106;2023-02-26T06:58:36;99629.47;;;-2.32;96.61
73151;BME280;61354;50.758;6.106;2023-02-26T07:01:03;99638.16;;;-2.35;96.38
73151;BME280;61354;50.758;6.106;2023-02-26T07:03:29;99639.53;;;-2.32;95.84
73151;BME280;61354;50.758;6.106;2023-02-26T07:05:55;99641.88;;;-2.41;96.72
73151;BME280;61354;50.758;6.106;2023-02-26T07:08:21;99646.03;;;-2.33;96.19
73151;BME280;61354;50.758;6.106;2023-02-26T07:10:48;99648.75;;;-2.33;95.99
73151;BME280;61354;50.758;6.106;2023-02-26T07:13:15;99658.19;;;-2.46;95.60
73151;BME280;61354;50.758;6.106;2023-02-26T07:15:41;99657.94;;;-2.44;96.13
73151;BME280;61354;50.758;6.106;2023-02-26T07:18:07;99661.13;;;-2.53;96.64
73151;BME280;61354;50.758;6.106;2023-02-26T07:20:33;99654.44;;;-2.40;94.96
73151;BME280;61354;50.758;6.106;2023-02-26T07:23:01;99659.31;;;-2.37;95.54
73151;BME280;61354;50.758;6.106;2023-02-26T07:25:27;99668.69;;;-2.28;95.16
73151;BME280;61354;50.758;6.106;2023-02-26T07:27:53;99685.72;;;-2.37;95.51
73151;BME280;61354;50.758;6.106;2023-02-26T07:30:19;99680.91;;;-2.25;94.79
73151;BME280;61354;50.758;6.106;2023-02-26T07:32:45;99684.44;;;-2.25;94.35
73151;BME280;61354;50.758;6.106;2023-02-26T07:35:10;99688.56;;;-2.22;94.10
73151;BME280;61354;50.758;6.106;2023-02-26T07:37:37;99696.50;;;-2.15;94.39
73151;BME280;61354;50.758;6.106;2023-02-26T07:40:03;99704.31;;;-2.24;94.07
73151;BME280;61354;50.758;6.106;2023-02-26T07:42:29;99703.56;;;-2.19;93.72
73151;BME280;61354;50.758;6.106;2023-02-26T07:44:55;99706.00;;;-2.18;93.90
73151;BME280;61354;50.758;6.106;2023-02-26T07:47:20;99713.91;;;-2.16;93.25
73151;BME280;61354;50.758;6.106;2023-02-26T07:49:46;99716.69;;;-2.11;93.40
73151;BME280;61354;50.758;6.106;2023-02-26T07:52:12;99720.72;;;-2.14;92.95
73151;BME280;61354;50.758;6.106;2023-02-26T07:54:37;99721.63;;;-2.03;92.90
73151;BME280;61354;50.758;6.106;2023-02-26T07:57:03;99727.03;;;-2.08;92.91
73151;BME280;61354;50.758;6.106;2023-02-26T07:59:29;99729.22;;;-2.05;92.65
73151;BME280;61354;50.758;6.106;2023-02-26T08:01:55;99730.31;;;-2.06;92.54
73151;BME280;61354;50.758;6.106;2023-02-26T08:04:21;99734.41;;;-2.04;92.85
73151;BME280;61354;50.758;6.106;2023-02-26T08:06:47;99735.00;;;-1.96;91.97
73151;BME280;61354;50.758;6.106;2023-02-26T08:09:13;99744.13;;;-2.13;91.61
73151;BME280;61354;50.758;6.106;2023-02-26T08:11:38;99740.06;;;-2.10;90.72
73151;BME280;61354;50.758;6.106;2023-02-26T08:14:06;99736.88;;;-2.02;91.49
73151;BME280;61354;50.758;6.106;2023-02-26T08:16:32;99734.53;;;-1.88;90.53
73151;BME280;61354;50.758;6.106;2023-02-26T08:18:58;99738.56;;;-1.91;91.24
73151;BME280;61354;50.758;6.106;2023-02-26T08:21:24;99742.47;;;-1.82;91.05
73151;BME280;61354;50.758;6.106;2023-02-26T08:23:49;99738.19;;;-1.72;90.47
73151;BME280;61354;50.758;6.106;2023-02-26T08:26:17;99747.66;;;-1.75;90.37
73151;BME280;61354;50.758;6.106;2023-02-26T08:28:43;99745.28;;;-1.66;90.56
73151;BME280;61354;50.758;6.106;2023-02-26T08:31:08;99754.88;;;-1.54;90.23
73151;BME280;61354;50.758;6.106;2023-02-26T08:33:34;99753.00;;;-1.53;89.65
73151;BME280;61354;50.758;6.106;2023-02-26T08:36:00;99757.59;;;-1.54;89.02
73151;BME280;61354;50.758;6.106;2023-02-26T08:38:27;99756.28;;;-1.46;89.14
73151;BME280;61354;50.758;6.106;2023-02-26T08:40:53;99769.88;;;-1.51;89.20
73151;BME280;61354;50.758;6.106;2023-02-26T08:43:19;99773.19;;;-1.49;88.64
73151;BME280;61354;50.758;6.106;2023-02-26T08:45:46;99775.16;;;-1.34;88.25
73151;BME280;61354;50.758;6.106;2023-02-26T08:48:12;99783.66;;;-1.26;87.99
73151;BME280;61354;50.758;6.106;2023-02-26T08:50:38;99789.06;;;-1.36;87.88
73151;BME280;61354;50.758;6.106;2023-02-26T08:53:05;99785.19;;;-1.45;88.01
73151;BME280;61354;50.758;6.106;2023-02-26T08:55:30;99796.75;;;-1.28;88.32
73151;BME280;61354;50.758;6.106;2023-02-26T08:57:56;99795.44;;;-1.15;88.32
73151;BME280;61354;50.758;6.106;2023-02-26T09:00:22;99785.56;;;-1.26;88.04
73151;BME280;61354;50.758;6.106;2023-02-26T09:02:48;99786.75;;;-1.07;88.26
73151;BME280;61354;50.758;6.106;2023-02-26T09:05:14;99793.56;;;-1.09;88.07
73151;BME280;61354;50.758;6.106;2023-02-26T09:07:41;99797.97;;;-1.03;87.79
73151;BME280;61354;50.758;6.106;2023-02-26T09:10:09;99810.47;;;-1.07;87.04
73151;BME280;61354;50.758;6.106;2023-02-26T09:12:35;99808.28;;;-1.10;88.47
73151;BME280;61354;50.758;6.106;2023-02-26T09:15:03;99814.06;;;-0.96;86.97
73151;BME280;61354;50.758;6.106;2023-02-26T09:17:29;99820.91;;;-0.89;87.46
73151;BME280;61354;50.758;6.106;2023-02-26T09:19:55;99819.28;;;-0.90;87.16
73151;BME280;61354;50.758;6.106;2023-02-26T09:22:21;99813.84;;;-0.80;86.51
73151;BME280;61354;50.758;6.106;2023-02-26T09:24:46;99822.34;;;-0.71;86.62
73151;BME280;61354;50.758;6.106;2023-02-26T09:27:12;99811.09;;;-0.95;86.40
73151;BME280;61354;50.758;6.106;2023-02-26T09:29:38;99825.78;;;-0.96;86.84
73151;BME280;61354;50.758;6.106;2023-02-26T09:32:03;99833.44;;;-0.93;87.36
73151;BME280;61354;50.758;6.106;2023-02-26T09:34:36;99837.22;;;-0.99;87.22
73151;BME280;61354;50.758;6.106;2023-02-26T09:37:04;99842.00;;;-1.16;86.41
73151;BME280;61354;50.758;6.106;2023-02-26T09:39:30;99840.41;;;-1.12;86.87
73151;BME280;61354;50.758;6.106;2023-02-26T09:41:59;99841.56;;;-1.03;87.02
73151;BME280;61354;50.758;6.106;2023-02-26T09:44:35;99847.06;;;-0.93;86.61
73151;BME280;61354;50.758;6.106;2023-02-26T09:52:31;99858.44;;;-1.06;86.91
73151;BME280;61354;50.758;6.106;2023-02-26T09:55:02;99857.88;;;-1.08;86.32
73151;BME280;61354;50.758;6.106;2023-02-26T09:57:32;99860.38;;;-1.02;85.75
73151;BME280;61354;50.758;6.106;2023-02-26T09:59:58;99864.50;;;-0.94;85.99
73151;BME280;61354;50.758;6.106;2023-02-26T10:02:32;99877.53;;;-1.06;86.58
73151;BME280;61354;50.758;6.106;2023-02-26T10:05:19;99873.22;;;-0.97;85.84
73151;BME280;61354;50.758;6.106;2023-02-26T10:10:33;99879.28;;;-0.85;85.03
73151;BME280;61354;50.758;6.106;2023-02-26T10:13:01;99875.53;;;-0.73;84.33
73151;BME280;61354;50.758;6.106;2023-02-26T10:15:37;99882.09;;;-0.64;83.71
73151;BME280;61354;50.758;6.106;2023-02-26T10:18:20;99888.66;;;-0.60;83.52
73151;BME280;61354;50.758;6.106;2023-02-26T10:21:08;99890.56;;;-0.66;81.00
73151;BME280;61354;50.758;6.106;2023-02-26T10:23:59;99887.59;;;-0.54;81.20
73151;BME280;61354;50.758;6.106;2023-02-26T10:26:31;99899.06;;;-0.57;79.19
73151;BME280;61354;50.758;6.106;2023-02-26T10:29:59;99899.38;;;-0.48;78.88
73151;BME280;61354;50.758;6.106;2023-02-26T10:32:26;99896.94;;;-0.45;77.76
73151;BME280;61354;50.758;6.106;2023-02-26T10:35:04;99898.03;;;-0.41;78.37
73151;BME280;61354;50.758;6.106;2023-02-26T10:42:45;99909.53;;;-0.29;76.99
73151;BME280;61354;50.758;6.106;2023-02-26T10:47:43;99908.97;;;-0.31;76.72
73151;BME280;61354;50.758;6.106;2023-02-26T10:50:14;99912.06;;;-0.12;78.43
73151;BME280;61354;50.758;6.106;2023-02-26T10:52:43;99909.56;;;-0.13;77.38
73151;BME280;61354;50.758;6.106;2023-02-26T10:55:26;99908.00;;;-0.04;75.82
73151;BME280;61354;50.758;6.106;2023-02-26T10:58:13;99916.13;;;-0.09;76.08
73151;BME280;61354;50.758;6.106;2023-02-26T11:00:41;99918.91;;;-0.04;73.21
73151;BME280;61354;50.758;6.106;2023-02-26T11:03:14;99921.63;;;-0.04;74.68
73151;BME280;61354;50.758;6.106;2023-02-26T11:05:40;99918.09;;;0.06;74.45
73151;BME280;61354;50.758;6.106;2023-02-26T11:08:18;99911.25;;;-0.02;71.37
73151;BME280;61354;50.758;6.106;2023-02-26T11:10:51;99923.25;;;-0.08;71.03
73151;BME280;61354;50.758;6.106;2023-02-26T11:13:17;99932.56;;;0.11;69.85
73151;BME280;61354;50.758;6.106;2023-02-26T11:15:46;99927.19;;;0.42;70.00
73151;BME280;61354;50.758;6.106;2023-02-26T11:18:15;99925.81;;;0.44;68.83
73151;BME280;61354;50.758;6.106;2023-02-26T11:20:45;99925.56;;;0.71;68.67
73151;BME280;61354;50.758;6.106;2023-02-26T11:23:15;99929.13;;;0.87;65.91
73151;BME280;61354;50.758;6.106;2023-02-26T11:25:42;99925.00;;;0.90;66.41
73151;BME280;61354;50.758;6.106;2023-02-26T11:28:25;99919.25;;;0.81;64.91
73151;BME280;61354;50.758;6.106;2023-02-26T11:30:54;99928.28;;;0.46;65.37
73151;BME280;61354;50.758;6.106;2023-02-26T11:33:31;99932.09;;;0.35;67.26
73151;BME280;61354;50.758;6.106;2023-02-26T11:36:00;99935.38;;;0.47;68.78
73151;BME280;61354;50.758;6.106;2023-02-26T11:38:27;99946.84;;;0.34;65.64
73151;BME280;61354;50.758;6.106;2023-02-26T11:40:56;99936.16;;;0.32;64.94
73151;BME280;61354;50.758;6.106;2023-02-26T11:43:24;99934.28;;;0.43;66.51
73151;BME280;61354;50.758;6.106;2023-02-26T11:45:58;99939.47;;;0.34;64.77
73151;BME280;61354;50.758;6.106;2023-02-26T11:48:28;99934.28;;;0.53;65.93
73151;BME280;61354;50.758;6.106;2023-02-26T11:50:59;99931.56;;;0.58;64.31
73151;BME280;61354;50.758;6.106;2023-02-26T11:53:36;99929.09;;;0.77;64.40
73151;BME280;61354;50.758;6.106;2023-02-26T11:56:08;99921.19;;;0.76;65.08
73151;BME280;61354;50.758;6.106;2023-02-26T11:58:37;99921.75;;;0.62;63.19
73151;BME280;61354;50.758;6.106;2023-02-26T12:01:06;99920.09;;;0.46;62.65
73151;BME280;61354;50.758;6.106;2023-02-26T12:03:32;99925.28;;;0.53;65.55
73151;BME280;61354;50.758;6.106;2023-02-26T12:06:00;99925.53;;;0.41;62.71
73151;BME280;61354;50.758;6.106;2023-02-26T12:08:36;99920.38;;;0.55;63.10
73151;BME280;61354;50.758;6.106;2023-02-26T12:31:01;99911.88;;;0.66;62.61
73151;BME280;61354;50.758;6.106;2023-02-26T12:43:56;99898.75;;;0.89;60.41
73151;BME280;61354;50.758;6.106;2023-02-26T12:46:38;99902.00;;;1.16;60.25
73151;BME280;61354;50.758;6.106;2023-02-26T12:49:45;99899.66;;;1.59;60.34
73151;BME280;61354;50.758;6.106;2023-02-26T13:17:23;99899.97;;;1.47;57.72
73151;BME280;61354;50.758;6.106;2023-02-26T13:20:02;99902.63;;;1.68;58.83
73151;BME280;61354;50.758;6.106;2023-02-26T13:22:34;99902.09;;;1.66;57.15
73151;BME280;61354;50.758;6.106;2023-02-26T13:30:58;99901.16;;;1.96;56.57
73151;BME280;61354;50.758;6.106;2023-02-26T13:33:29;99894.59;;;1.92;54.57
73151;BME280;61354;50.758;6.106;2023-02-26T13:35:56;99889.25;;;2.16;56.34
73151;BME280;61354;50.758;6.106;2023-02-26T13:41:29;99890.53;;;2.23;54.45
73151;BME280;61354;50.758;6.106;2023-02-26T13:51:48;99898.50;;;1.76;55.82
73151;BME280;61354;50.758;6.106;2023-02-26T13:57:06;99901.03;;;1.62;57.71
73151;BME280;61354;50.758;6.106;2023-02-26T13:59:36;99898.53;;;1.65;57.06
73151;BME280;61354;50.758;6.106;2023-02-26T14:02:36;99881.50;;;1.84;55.34
73151;BME280;61354;50.758;6.106;2023-02-26T14:05:09;99881.97;;;1.96;55.12
73151;BME280;61354;50.758;6.106;2023-02-26T14:07:47;99891.94;;;2.21;54.47
73151;BME280;61354;50.758;6.106;2023-02-26T14:13:06;99885.44;;;2.07;53.83
73151;BME280;61354;50.758;6.106;2023-02-26T14:15:48;99892.81;;;2.11;53.18
73151;BME280;61354;50.758;6.106;2023-02-26T14:18:35;99899.28;;;2.31;53.50
73151;BME280;61354;50.758;6.106;2023-02-26T14:26:35;99898.28;;;2.16;53.98
73151;BME280;61354;50.758;6.106;2023-02-26T14:32:00;99902.56;;;2.28;53.48
73151;BME280;61354;50.758;6.106;2023-02-26T14:34:33;99895.44;;;2.32;54.89
73151;BME280;61354;50.758;6.106;2023-02-26T14:37:03;99909.13;;;2.37;52.96
73151;BME280;61354;50.758;6.106;2023-02-26T14:39:42;99903.19;;;2.19;52.80
73151;BME280;61354;50.758;6.106;2023-02-26T14:42:32;99915.88;;;2.05;53.34
73151;BME280;61354;50.758;6.106;2023-02-26T14:45:12;99914.97;;;2.20;53.80
73151;BME280;61354;50.758;6.106;2023-02-26T14:47:46;99920.22;;;2.11;52.35
73151;BME280;61354;50.758;6.106;2023-02-26T14:50:18;99912.00;;;2.16;51.77
73151;BME280;61354;50.758;6.106;2023-02-26T14:55:44;99917.47;;;2.11;50.64
73151;BME280;61354;50.758;6.106;2023-02-26T15:06:52;99914.81;;;2.45;52.84
73151;BME280;61354;50.758;6.106;2023-02-26T15:12:14;99922.88;;;2.27;50.73
73151;BME280;61354;50.758;6.106;2023-02-26T15:17:41;99911.25;;;2.45;52.50
73151;BME280;61354;50.758;6.106;2023-02-26T15:20:24;99916.16;;;2.48;51.47
73151;BME280;61354;50.758;6.106;2023-02-26T15:25:46;99917.84;;;2.39;50.97
73151;BME280;61354;50.758;6.106;2023-02-26T15:28:23;99915.94;;;2.39;51.54
73151;BME280;61354;50.758;6.106;2023-02-26T15:30:50;99922.69;;;2.57;51.92
73151;BME280;61354;50.758;6.106;2023-02-26T15:33:18;99920.72;;;2.63;52.38
73151;BME280;61354;50.758;6.106;2023-02-26T15:35:47;99934.06;;;2.74;51.14
73151;BME280;61354;50.758;6.106;2023-02-26T15:38:13;99934.75;;;2.90;51.77
73151;BME280;61354;50.758;6.106;2023-02-26T15:40:39;99931.31;;;2.69;51.27
73151;BME280;61354;50.758;6.106;2023-02-26T15:43:07;99938.06;;;2.53;50.41
73151;BME280;61354;50.758;6.106;2023-02-26T15:45:39;99944.97;;;2.45;50.83
73151;BME280;61354;50.758;6.106;2023-02-26T15:48:10;99945.31;;;2.34;52.92
73151;BME280;61354;50.758;6.106;2023-02-26T15:50:40;99946.25;;;2.58;52.38
73151;BME280;61354;50.758;6.106;2023-02-26T15:53:11;99951.13;;;2.66;51.80
73151;BME280;61354;50.758;6.106;2023-02-26T15:55:48;99950.31;;;2.66;52.31
73151;BME280;61354;50.758;6.106;2023-02-26T15:58:19;99952.25;;;2.94;52.33
73151;BME280;61354;50.758;6.106;2023-02-26T16:00:52;99951.31;;;2.75;49.61
73151;BME280;61354;50.758;6.106;2023-02-26T16:03:25;99949.16;;;2.72;51.01
73151;BME280;61354;50.758;6.106;2023-02-26T16:05:53;99949.63;;;2.45;51.65
73151;BME280;61354;50.758;6.106;2023-02-26T16:08:19;99953.34;;;2.59;51.82